Airfield :
LOGIN :

Register | Disclaimer

   EN    FR    IT 

 










Legend :    VFR   Marginal VFR   IFR   Intensive IFR   Very Intensive IFR
Visi :
Ceiling :
>= 8 km
>= 3000ft
5 to 8 km
1000 to 3000 ft
1500m to 5 km
500 to 1000 ft
800 to 1500m
200 to 500 ft
< 800m
< 200 ft
Symbols :   Thunderstorms  Fog  Heavy snow  Heavy precipitations  Wind > 20 kt
SIGMETs :     Misc.  Thunderstorms  Icing  Turbulence  Mountain Waves  Volcanic Ashes






- Airport Elevation : 138 ft
- IATA code : BIO


LEBB - Bilbao

CURRENT METAR :
  • 152200Z 20010G23KT 160V260 9999 FEW020 18/08 Q1016 NOSIG

EXPIRED METARs :
  • 152130Z 20009KT 150V240 9999 FEW020 19/08 Q1016 NOSIG
  • 152100Z 20010KT 150V260 9999 FEW020 19/08 Q1016 NOSIG
  • 152030Z 17005KT 120V250 9999 FEW045 18/07 Q1017 NOSIG
  • 152000Z 15006KT 100V220 9999 FEW045 18/07 Q1017 NOSIG
  • 151930Z 18008G21KT 130V230 9999 FEW045 18/07 Q1017 NOSIG

TAF COR TAF LEBB
Valid from the 15 at 18:00 until the 16 at 18:00 UTC


151737Z 1518/1618 18009KT 9999 SCT045 TX24/1613Z TN15/1606Z
TEMPO 1603/1618 22015G28KT



MET'MAP, your aeronautical weather chart ! - Copyright ORBIFLY December 2007 - Disclaimer

ORBIFLY MET'MAP TEAM :

Programming & Development : Alexandra Zaïnal
Concept & Development : Baudouin d'Aumeries
Co-Development & Prog : Marc-Olivier Méhu
Technical & hardware support : Manuel Goepfert

Contact : metmap@orbifly.com




SOURCES & CREDITS :

   NOAA